La Monte, Missouri
Current Conditions -  °F | °C
As of 9:58 AM on Friday 24 Oct 2014 (Local Time) from KSZL Reporting Station
Scattered Clouds Scattered Clouds  
Wind Chill: 61°   Ceiling: Unl
Heat Index: 61°   Visibility: 10mi
Dew Point: 56°   Wind: 10mph
Humidity: 83%   Direction: 210°SSW
Pressure: 30.08"   Gusts: NA
Location:  38.77°N, 93.43°W
Report Text: KSZL 241458Z 21009KT 10SM SCT100 16/13 A3008 RMK AO2A SLP186 T01590131 53002 $
Loading
Personal Weather Stations






























Interactive Weather Map
Tropical Storm Tracking
New forecast layout! Learn more

10-Day Weather Forecast

Advertisements
Track Severe Weather on mobile